createdAt,value
2022-12-11T00:00:25.647Z,30.79
2022-12-11T00:01:25.612Z,29.60
2022-12-11T00:02:25.606Z,29.20
2022-12-11T00:03:25.559Z,29.29
2022-12-11T00:04:27.494Z,29.00
2022-12-11T00:05:25.455Z,29.50
2022-12-11T00:06:25.416Z,28.00
2022-12-11T00:07:25.378Z,29.00
2022-12-11T00:08:25.413Z,27.70
2022-12-11T00:09:25.302Z,29.60
2022-12-11T00:10:25.296Z,27.60
2022-12-11T00:11:25.231Z,27.79
2022-12-11T00:12:25.195Z,28.39
2022-12-11T00:13:25.161Z,29.89
2022-12-11T00:14:25.118Z,28.10
2022-12-11T00:15:25.075Z,29.00
2022-12-11T00:16:27.126Z,28.39
2022-12-11T00:17:24.988Z,26.50
2022-12-11T00:18:24.949Z,27.60
2022-12-11T00:19:24.908Z,28.60
2022-12-11T00:20:24.867Z,30.20
2022-12-11T00:21:24.828Z,30.70
2022-12-11T00:22:24.789Z,30.00
2022-12-11T00:23:24.762Z,29.29
2022-12-11T00:24:24.718Z,30.00
2022-12-11T00:25:24.679Z,31.79
2022-12-11T00:26:26.667Z,31.29
2022-12-11T00:27:24.602Z,32.79
2022-12-11T00:28:24.556Z,33.00
2022-12-11T00:29:24.516Z,31.29
2022-12-11T00:30:24.473Z,33.40
2022-12-11T00:31:24.545Z,31.50
2022-12-11T00:32:24.398Z,33.70
2022-12-11T00:33:24.364Z,32.00
2022-12-11T00:34:24.324Z,31.29
2022-12-11T00:35:24.292Z,33.20
2022-12-11T00:36:24.252Z,34.29
2022-12-11T00:37:24.250Z,31.00
2022-12-11T00:38:24.178Z,34.40
2022-12-11T00:39:24.139Z,31.00
2022-12-11T00:40:24.099Z,32.29
2022-12-11T00:41:24.058Z,32.70
2022-12-11T00:42:24.046Z,31.50
2022-12-11T00:43:23.980Z,31.50
2022-12-11T00:44:23.940Z,32.59
2022-12-11T00:45:23.899Z,33.40
2022-12-11T00:46:23.908Z,32.79
2022-12-11T00:47:23.816Z,32.59
2022-12-11T00:48:23.774Z,34.20
2022-12-11T00:49:23.731Z,34.40
2022-12-11T00:50:23.692Z,33.90
2022-12-11T00:51:23.647Z,34.40
2022-12-11T00:52:23.603Z,33.40
2022-12-11T00:53:23.560Z,33.40
2022-12-11T00:54:23.518Z,33.50
2022-12-11T00:55:23.481Z,32.50
2022-12-11T00:56:23.433Z,30.70
2022-12-11T00:57:23.397Z,32.59
2022-12-11T00:58:23.381Z,31.29
2022-12-11T00:59:23.313Z,30.70
2022-12-11T01:00:23.273Z,31.50
2022-12-11T01:01:23.340Z,31.10
2022-12-11T01:02:23.201Z,30.50
2022-12-11T01:03:23.160Z,31.10
2022-12-11T01:04:23.119Z,32.79
2022-12-11T01:05:23.077Z,30.70
2022-12-11T01:06:23.044Z,32.09
2022-12-11T01:07:23.001Z,31.00
2022-12-11T01:08:23.034Z,31.89
2022-12-11T01:09:22.919Z,30.50
2022-12-11T01:10:22.953Z,29.60
2022-12-11T01:11:22.845Z,31.10
2022-12-11T01:12:22.806Z,27.20
2022-12-11T01:13:22.767Z,27.79
2022-12-11T01:14:22.765Z,27.79
2022-12-11T01:15:22.694Z,27.29
2022-12-11T01:16:22.713Z,26.79
2022-12-11T01:17:22.620Z,26.79
2022-12-11T01:18:22.588Z,28.10
2022-12-11T01:19:22.553Z,28.20
2022-12-11T01:20:22.526Z,26.70
2022-12-11T01:21:22.497Z,26.70
2022-12-11T01:22:22.464Z,27.79
2022-12-11T01:23:22.433Z,28.20
2022-12-11T01:24:22.399Z,29.60
2022-12-11T01:25:22.363Z,28.10
2022-12-11T01:26:22.330Z,27.89
2022-12-11T01:27:22.295Z,28.79
2022-12-11T01:28:22.259Z,29.10
2022-12-11T01:29:22.225Z,27.79
2022-12-11T01:30:22.212Z,29.39
2022-12-11T01:31:22.162Z,28.29
2022-12-11T01:32:22.117Z,30.29
2022-12-11T01:33:22.083Z,30.00
2022-12-11T01:34:22.050Z,28.89
2022-12-11T01:35:22.015Z,30.79
2022-12-11T01:36:21.982Z,31.10
2022-12-11T01:37:21.951Z,31.00
2022-12-11T01:38:21.918Z,31.39
2022-12-11T01:39:21.885Z,29.70
2022-12-11T01:40:21.881Z,29.00
2022-12-11T01:41:21.852Z,27.50
2022-12-11T01:42:21.783Z,26.39
2022-12-11T01:43:21.748Z,26.79
2022-12-11T01:44:21.712Z,25.89
2022-12-11T01:45:21.802Z,24.70
2022-12-11T01:46:21.727Z,24.29
2022-12-11T01:47:21.623Z,24.60
2022-12-11T01:48:21.595Z,24.29
2022-12-11T01:49:21.568Z,23.50
2022-12-11T01:50:21.535Z,23.39
2022-12-11T01:51:21.512Z,24.20
2022-12-11T01:52:21.484Z,24.29
2022-12-11T01:53:21.457Z,24.39
2022-12-11T01:54:21.434Z,24.60
2022-12-11T01:55:21.405Z,23.79
2022-12-11T01:56:21.380Z,23.70
2022-12-11T01:57:21.353Z,25.29
2022-12-11T01:58:21.320Z,24.39
2022-12-11T01:59:21.287Z,25.10
2022-12-11T02:00:21.258Z,24.79
2022-12-11T02:01:21.295Z,25.79
2022-12-11T02:02:21.255Z,24.20
2022-12-11T02:03:21.178Z,24.79
2022-12-11T02:04:21.141Z,26.10
2022-12-11T02:05:21.106Z,24.89
2022-12-11T02:06:21.087Z,26.20
2022-12-11T02:07:21.044Z,25.39
2022-12-11T02:08:21.098Z,27.20
2022-12-11T02:09:20.972Z,25.29
2022-12-11T02:10:20.936Z,26.29
2022-12-11T02:11:20.904Z,26.50
2022-12-11T02:12:20.870Z,25.89
2022-12-11T02:13:20.844Z,25.29
2022-12-11T02:14:20.813Z,24.39
2022-12-11T02:15:20.780Z,25.39
2022-12-11T02:16:20.819Z,24.60
2022-12-11T02:17:20.714Z,25.00
2022-12-11T02:18:20.699Z,24.20
2022-12-11T02:19:20.638Z,24.79
2022-12-11T02:20:20.603Z,24.39
2022-12-11T02:21:20.565Z,23.29
2022-12-11T02:22:20.531Z,24.39
2022-12-11T02:23:20.497Z,23.89
2022-12-11T02:24:20.466Z,24.39
2022-12-11T02:25:20.432Z,25.00
2022-12-11T02:26:20.403Z,25.50
2022-12-11T02:27:20.535Z,25.10
2022-12-11T02:28:20.340Z,24.39
2022-12-11T02:29:20.303Z,24.89
2022-12-11T02:30:20.274Z,26.20
2022-12-11T02:31:20.257Z,25.60
2022-12-11T02:32:20.215Z,23.70
2022-12-11T02:33:20.188Z,24.89
2022-12-11T02:34:20.195Z,25.10
2022-12-11T02:35:20.130Z,24.00
2022-12-11T02:36:20.111Z,24.29
2022-12-11T02:37:20.087Z,23.29
2022-12-11T02:38:20.081Z,25.00
2022-12-11T02:39:20.053Z,24.60
2022-12-11T02:40:20.033Z,24.79
2022-12-11T02:41:20.011Z,25.39
2022-12-11T02:42:19.985Z,25.00
2022-12-11T02:43:19.959Z,24.60
2022-12-11T02:44:19.951Z,24.70
2022-12-11T02:45:19.920Z,23.89
2022-12-11T02:46:19.980Z,24.79
2022-12-11T02:47:19.869Z,23.89
2022-12-11T02:48:19.841Z,24.79
2022-12-11T02:49:19.803Z,23.79
2022-12-11T02:50:19.797Z,24.70
2022-12-11T02:51:19.736Z,24.70
2022-12-11T02:52:19.702Z,26.60
2022-12-11T02:53:19.666Z,22.79
2022-12-11T02:54:19.633Z,23.10
2022-12-11T02:55:19.677Z,22.39
2022-12-11T02:56:19.555Z,23.39
2022-12-11T02:57:19.521Z,24.10
2022-12-11T02:58:19.487Z,23.70
2022-12-11T02:59:19.456Z,24.10
2022-12-11T03:00:19.423Z,22.39
2022-12-11T03:01:19.404Z,23.60
2022-12-11T03:02:19.435Z,23.79
2022-12-11T03:03:19.324Z,24.60
2022-12-11T03:04:19.289Z,26.89
2022-12-11T03:05:19.254Z,24.10
2022-12-11T03:06:19.239Z,24.79
2022-12-11T03:07:19.178Z,23.20
2022-12-11T03:08:19.207Z,23.60
2022-12-11T03:09:19.103Z,23.00
2022-12-11T03:10:19.071Z,24.20
2022-12-11T03:11:19.052Z,24.39
2022-12-11T03:12:18.994Z,23.00
2022-12-11T03:13:18.956Z,23.29
2022-12-11T03:14:18.919Z,23.29
2022-12-11T03:15:18.878Z,23.60
2022-12-11T03:16:18.909Z,24.10
2022-12-11T03:17:18.810Z,24.10
2022-12-11T03:18:18.778Z,22.29
2022-12-11T03:19:18.746Z,22.79
2022-12-11T03:20:18.717Z,22.29
2022-12-11T03:21:18.685Z,22.39
2022-12-11T03:22:18.682Z,22.89
2022-12-11T03:23:18.620Z,22.70
2022-12-11T03:24:18.587Z,22.50
2022-12-11T03:25:18.551Z,22.39
2022-12-11T03:26:18.520Z,22.79
2022-12-11T03:27:18.483Z,22.70
2022-12-11T03:28:18.452Z,20.29
2022-12-11T03:29:18.416Z,21.39
2022-12-11T03:30:18.381Z,20.70
2022-12-11T03:31:18.392Z,20.39
2022-12-11T03:32:18.314Z,21.20
2022-12-11T03:33:18.277Z,22.60
2022-12-11T03:34:18.253Z,21.60
2022-12-11T03:35:18.216Z,21.79
2022-12-11T03:36:18.184Z,21.89
2022-12-11T03:37:18.150Z,21.29
2022-12-11T03:38:18.144Z,22.29
2022-12-11T03:39:18.089Z,21.70
2022-12-11T03:40:18.059Z,21.20
2022-12-11T03:41:18.030Z,21.50
2022-12-11T03:42:17.998Z,21.79
2022-12-11T03:43:17.965Z,21.79
2022-12-11T03:44:17.938Z,20.29
2022-12-11T03:45:17.905Z,20.39
2022-12-11T03:46:17.922Z,20.89
2022-12-11T03:47:17.835Z,21.39
2022-12-11T03:48:17.796Z,21.29
2022-12-11T03:49:17.759Z,22.10
2022-12-11T03:50:17.723Z,20.70
2022-12-11T03:51:17.690Z,21.79
2022-12-11T03:52:17.653Z,22.00
2022-12-11T03:53:17.623Z,25.50
2022-12-11T03:54:17.610Z,22.50
2022-12-11T03:55:17.558Z,23.10
2022-12-11T03:56:17.524Z,23.10
2022-12-11T03:57:17.492Z,22.29
2022-12-11T03:58:17.454Z,22.60
2022-12-11T03:59:17.419Z,23.00
2022-12-11T04:00:17.381Z,21.79
2022-12-11T04:01:17.346Z,23.39
2022-12-11T04:02:17.313Z,22.29
2022-12-11T04:03:17.283Z,23.10
2022-12-11T04:04:17.292Z,22.50
2022-12-11T04:05:17.228Z,23.00
2022-12-11T04:06:17.199Z,24.00
2022-12-11T04:07:17.170Z,24.20
2022-12-11T04:08:17.194Z,23.10
2022-12-11T04:09:17.103Z,23.39
2022-12-11T04:10:17.090Z,23.39
2022-12-11T04:11:17.033Z,24.20
2022-12-11T04:12:17.006Z,21.70
2022-12-11T04:13:16.972Z,20.89
2022-12-11T04:14:16.943Z,22.10
2022-12-11T04:15:16.909Z,22.29
2022-12-11T04:16:16.919Z,21.20
2022-12-11T04:17:16.844Z,21.79
2022-12-11T04:18:16.803Z,22.20
2022-12-11T04:19:16.765Z,22.29
2022-12-11T04:20:16.725Z,20.89
2022-12-11T04:21:16.687Z,23.29
2022-12-11T04:22:16.650Z,21.79
2022-12-11T04:23:16.610Z,22.89
2022-12-11T04:24:16.583Z,21.70
2022-12-11T04:25:16.527Z,22.70
2022-12-11T04:26:16.509Z,22.29
2022-12-11T04:27:16.452Z,21.89
2022-12-11T04:28:16.414Z,22.10
2022-12-11T04:29:16.380Z,22.29
2022-12-11T04:30:16.335Z,22.79
2022-12-11T04:31:16.354Z,22.70
2022-12-11T04:32:16.265Z,22.20
2022-12-11T04:33:16.228Z,21.89
2022-12-11T04:34:16.193Z,22.70
2022-12-11T04:35:16.161Z,22.89
2022-12-11T04:36:16.119Z,24.10
2022-12-11T04:37:16.083Z,24.50
2022-12-11T04:38:16.045Z,23.60
2022-12-11T04:39:16.006Z,22.39
2022-12-11T04:40:15.971Z,23.10
2022-12-11T04:41:15.929Z,23.39
2022-12-11T04:42:16.382Z,23.39
2022-12-11T04:43:15.860Z,22.60
2022-12-11T04:44:15.824Z,24.00
2022-12-11T04:45:15.784Z,23.20
2022-12-11T04:46:15.823Z,23.39
2022-12-11T04:47:15.719Z,22.60
2022-12-11T04:48:15.687Z,22.89
2022-12-11T04:49:15.649Z,23.20
2022-12-11T04:50:15.616Z,22.29
2022-12-11T04:51:15.581Z,22.00
2022-12-11T04:52:15.553Z,22.79
2022-12-11T04:53:15.519Z,21.50
2022-12-11T04:54:15.489Z,23.70
2022-12-11T04:55:15.458Z,23.60
2022-12-11T04:56:15.425Z,23.10
2022-12-11T04:57:15.386Z,22.29
2022-12-11T04:58:15.378Z,22.10
2022-12-11T04:59:15.311Z,19.10
2022-12-11T05:00:15.271Z,20.20
2022-12-11T05:01:15.302Z,20.10
2022-12-11T05:02:15.194Z,20.10
2022-12-11T05:03:15.156Z,19.70
2022-12-11T05:04:15.119Z,19.29
2022-12-11T05:05:15.083Z,19.79
2022-12-11T05:06:15.041Z,19.89
2022-12-11T05:07:15.006Z,18.29
2022-12-11T05:08:15.002Z,18.00
2022-12-11T05:09:14.934Z,18.79
2022-12-11T05:10:14.898Z,20.00
2022-12-11T05:11:14.897Z,19.89
2022-12-11T05:12:14.832Z,19.00
2022-12-11T05:13:14.798Z,17.20
2022-12-11T05:14:14.798Z,17.00
2022-12-11T05:15:14.733Z,16.50
2022-12-11T05:16:14.799Z,18.20
2022-12-11T05:17:14.666Z,18.29
2022-12-11T05:18:14.633Z,18.89
2022-12-11T05:19:14.594Z,18.29
2022-12-11T05:20:14.563Z,19.89
2022-12-11T05:21:14.529Z,18.70
2022-12-11T05:22:14.491Z,19.89
2022-12-11T05:23:14.456Z,20.79
2022-12-11T05:24:14.421Z,19.00
2022-12-11T05:25:14.385Z,20.60
2022-12-11T05:26:14.338Z,19.79
2022-12-11T05:27:14.299Z,21.50
2022-12-11T05:28:14.259Z,21.10
2022-12-11T05:29:14.231Z,20.79
2022-12-11T05:30:14.207Z,21.00
2022-12-11T05:31:14.273Z,20.79
2022-12-11T05:32:14.103Z,22.89
2022-12-11T05:33:14.065Z,21.89
2022-12-11T05:34:14.020Z,21.60
2022-12-11T05:35:14.078Z,23.39
2022-12-11T05:36:13.954Z,20.70
2022-12-11T05:37:13.901Z,22.29
2022-12-11T05:38:13.866Z,22.29
2022-12-11T05:39:13.829Z,22.29
2022-12-11T05:40:13.792Z,22.39
2022-12-11T05:41:13.753Z,22.20
2022-12-11T05:42:13.718Z,21.79
2022-12-11T05:43:13.680Z,21.50
2022-12-11T05:44:13.641Z,22.50
2022-12-11T05:45:13.898Z,20.00
2022-12-11T05:46:13.629Z,19.70
2022-12-11T05:47:13.536Z,20.39
2022-12-11T05:48:13.502Z,19.50
2022-12-11T05:49:13.464Z,18.50
2022-12-11T05:50:13.426Z,17.60
2022-12-11T05:51:13.389Z,17.79
2022-12-11T05:52:13.350Z,19.20
2022-12-11T05:53:13.317Z,17.89
2022-12-11T05:54:13.281Z,18.39
2022-12-11T05:55:13.520Z,19.20
2022-12-11T05:56:13.218Z,18.10
2022-12-11T05:57:13.181Z,17.20
2022-12-11T05:58:13.151Z,18.20
2022-12-11T05:59:13.116Z,17.60
2022-12-11T06:00:13.078Z,18.39
2022-12-11T06:01:13.047Z,17.10
2022-12-11T06:02:13.167Z,15.89
2022-12-11T06:03:13.063Z,16.10
2022-12-11T06:04:12.936Z,17.89
2022-12-11T06:05:13.209Z,17.29
2022-12-11T06:06:12.866Z,16.00
2022-12-11T06:07:12.830Z,17.70
2022-12-11T06:08:12.845Z,16.00
2022-12-11T06:09:12.747Z,19.39
2022-12-11T06:10:12.707Z,20.79
2022-12-11T06:11:12.675Z,20.29
2022-12-11T06:12:12.643Z,20.50
2022-12-11T06:13:12.611Z,20.39
2022-12-11T06:14:12.573Z,21.00
2022-12-11T06:15:12.754Z,19.89
2022-12-11T06:16:12.562Z,20.39
2022-12-11T06:17:12.478Z,20.39
2022-12-11T06:18:12.475Z,21.00
2022-12-11T06:19:12.418Z,21.60
2022-12-11T06:20:12.388Z,21.10
2022-12-11T06:21:12.351Z,21.10
2022-12-11T06:22:12.313Z,21.20
2022-12-11T06:23:12.285Z,20.60
2022-12-11T06:24:12.252Z,20.60
2022-12-11T06:25:12.566Z,20.29
2022-12-11T06:26:12.185Z,22.50
2022-12-11T06:27:12.143Z,19.50
2022-12-11T06:28:12.111Z,19.70
2022-12-11T06:29:13.182Z,23.39
2022-12-11T06:30:12.033Z,24.20
2022-12-11T06:31:12.043Z,23.20
2022-12-11T06:32:11.964Z,24.10
2022-12-11T06:33:11.932Z,21.89
2022-12-11T06:34:11.916Z,20.20
2022-12-11T06:35:12.253Z,19.50
2022-12-11T06:36:11.815Z,20.10
2022-12-11T06:37:11.784Z,19.79
2022-12-11T06:38:11.751Z,19.50
2022-12-11T06:39:11.724Z,17.70
2022-12-11T06:40:11.689Z,18.79
2022-12-11T06:41:11.650Z,19.50
2022-12-11T06:42:11.613Z,19.50
2022-12-11T06:43:11.573Z,19.00
2022-12-11T06:44:11.536Z,19.20
2022-12-11T06:45:11.832Z,19.70
2022-12-11T06:46:11.513Z,20.89
2022-12-11T06:47:11.425Z,21.10
2022-12-11T06:48:11.388Z,21.79
2022-12-11T06:49:11.347Z,22.20
2022-12-11T06:50:11.337Z,21.60
2022-12-11T06:51:11.274Z,20.00
2022-12-11T06:52:16.613Z,19.20
2022-12-11T06:53:12.196Z,19.60
2022-12-11T06:54:11.150Z,17.79
2022-12-11T06:55:11.399Z,18.89
2022-12-11T06:56:11.073Z,17.79
2022-12-11T06:57:11.033Z,18.00
2022-12-11T06:58:10.993Z,19.39
2022-12-11T06:59:10.956Z,19.50
2022-12-11T07:00:10.914Z,20.00
2022-12-11T07:01:10.955Z,18.39
2022-12-11T07:02:10.918Z,18.10
2022-12-11T07:03:10.793Z,17.60
2022-12-11T07:04:10.755Z,16.89
2022-12-11T07:05:11.127Z,17.20
2022-12-11T07:06:10.709Z,17.29
2022-12-11T07:07:10.616Z,19.10
2022-12-11T07:08:10.632Z,19.39
2022-12-11T07:09:10.532Z,20.79
2022-12-11T07:10:10.498Z,20.10
2022-12-11T07:11:10.457Z,19.20
2022-12-11T07:12:10.421Z,17.79
2022-12-11T07:13:10.377Z,19.10
2022-12-11T07:14:10.338Z,17.00
2022-12-11T07:15:10.637Z,19.00
2022-12-11T07:16:10.289Z,17.20
2022-12-11T07:17:10.228Z,16.50
2022-12-11T07:18:10.191Z,17.00
2022-12-11T07:19:10.148Z,17.70
2022-12-11T07:20:10.104Z,17.10
2022-12-11T07:21:10.061Z,16.20
2022-12-11T07:22:10.044Z,17.00
2022-12-11T07:23:09.974Z,17.00
2022-12-11T07:24:09.934Z,19.20
2022-12-11T07:25:10.365Z,16.79
2022-12-11T07:26:09.840Z,17.10
2022-12-11T07:27:09.796Z,15.10
2022-12-11T07:28:13.640Z,16.50
2022-12-11T07:29:09.709Z,16.89
2022-12-11T07:30:09.692Z,15.89
2022-12-11T07:31:09.635Z,17.39
2022-12-11T07:32:09.725Z,17.39
2022-12-11T07:33:09.558Z,17.39
2022-12-11T07:34:09.520Z,16.10
2022-12-11T07:35:09.993Z,16.50
2022-12-11T07:36:09.453Z,17.00
2022-12-11T07:37:09.401Z,18.39
2022-12-11T07:38:09.390Z,16.60
2022-12-11T07:39:09.316Z,16.10
2022-12-11T07:40:09.275Z,16.20
2022-12-11T07:41:09.238Z,17.20
2022-12-11T07:42:09.193Z,16.39
2022-12-11T07:43:09.147Z,17.29
2022-12-11T07:44:09.109Z,17.70
2022-12-11T07:45:09.417Z,16.39
2022-12-11T07:46:09.068Z,16.79
2022-12-11T07:47:08.989Z,16.50
2022-12-11T07:48:08.953Z,17.20
2022-12-11T07:49:08.919Z,16.50
2022-12-11T07:50:08.893Z,16.20
2022-12-11T07:51:08.850Z,16.89
2022-12-11T07:52:08.816Z,17.60
2022-12-11T07:53:08.777Z,17.00
2022-12-11T07:54:08.756Z,17.29
2022-12-11T07:55:09.044Z,16.60
2022-12-11T07:56:08.657Z,17.00
2022-12-11T07:57:13.836Z,17.00
2022-12-11T07:58:08.564Z,17.50
2022-12-11T07:59:08.519Z,16.70
2022-12-11T08:00:08.476Z,16.70
2022-12-11T08:01:08.463Z,17.60
2022-12-11T08:02:08.446Z,17.29
2022-12-11T08:03:08.342Z,16.70
2022-12-11T08:04:08.287Z,17.20
2022-12-11T08:05:08.638Z,17.89
2022-12-11T08:06:08.188Z,17.39
2022-12-11T08:07:08.146Z,17.79
2022-12-11T08:08:08.110Z,16.39
2022-12-11T08:09:08.037Z,17.79
2022-12-11T08:10:08.014Z,17.60
2022-12-11T08:11:07.943Z,17.39
2022-12-11T08:12:07.895Z,17.00
2022-12-11T08:13:07.841Z,17.89
2022-12-11T08:14:07.795Z,17.39
2022-12-11T08:15:07.762Z,16.79
2022-12-11T08:16:07.700Z,18.00
2022-12-11T08:17:07.718Z,17.50
2022-12-11T08:18:07.606Z,17.60
2022-12-11T08:19:07.554Z,17.60
2022-12-11T08:20:07.505Z,17.60
2022-12-11T08:21:07.455Z,16.70
2022-12-11T08:22:07.405Z,17.20
2022-12-11T08:23:07.349Z,17.39
2022-12-11T08:24:07.296Z,17.39
2022-12-11T08:25:07.237Z,16.39
2022-12-11T08:26:07.205Z,16.70
2022-12-11T08:27:07.128Z,17.29
2022-12-11T08:28:07.074Z,16.60
2022-12-11T08:29:07.018Z,16.89
2022-12-11T08:30:06.967Z,15.80
2022-12-11T08:31:06.950Z,16.79
2022-12-11T08:32:12.040Z,17.89
2022-12-11T08:33:06.799Z,16.20
2022-12-11T08:34:06.746Z,17.00
2022-12-11T08:35:06.694Z,15.80
2022-12-11T08:36:06.635Z,16.50
2022-12-11T08:37:06.579Z,16.50
2022-12-11T08:38:06.526Z,16.70
2022-12-11T08:39:06.477Z,17.20
2022-12-11T08:40:06.428Z,16.89
2022-12-11T08:41:06.374Z,16.60
2022-12-11T08:42:06.458Z,17.00
2022-12-11T08:43:06.279Z,16.20
2022-12-11T08:44:07.073Z,16.60
2022-12-11T08:45:06.164Z,17.79
2022-12-11T08:46:06.192Z,17.89
2022-12-11T08:47:06.066Z,16.70
2022-12-11T08:48:06.018Z,17.10
2022-12-11T08:49:05.965Z,17.60
2022-12-11T08:50:05.913Z,17.10
2022-12-11T08:51:06.227Z,17.70
2022-12-11T08:52:05.815Z,17.89
2022-12-11T08:53:05.766Z,18.10
2022-12-11T08:54:05.718Z,18.00
2022-12-11T08:55:05.669Z,18.00
2022-12-11T08:56:05.610Z,17.50
2022-12-11T08:57:05.554Z,16.89
2022-12-11T08:58:05.522Z,17.89
2022-12-11T08:59:05.449Z,17.00
2022-12-11T09:00:05.401Z,17.79
2022-12-11T09:01:05.480Z,18.29
2022-12-11T09:02:05.298Z,18.10
2022-12-11T09:03:09.761Z,17.79
2022-12-11T09:04:06.203Z,18.29
2022-12-11T09:05:05.142Z,19.00
2022-12-11T09:06:05.092Z,17.89
2022-12-11T09:07:05.038Z,18.70
2022-12-11T09:08:05.054Z,18.50
2022-12-11T09:09:04.947Z,19.50
2022-12-11T09:10:04.901Z,19.20
2022-12-11T09:11:04.854Z,18.39
2022-12-11T09:12:04.802Z,18.60
2022-12-11T09:13:04.746Z,18.29
2022-12-11T09:14:07.658Z,19.20
2022-12-11T09:15:04.632Z,18.39
2022-12-11T09:16:04.640Z,18.89
2022-12-11T09:17:04.518Z,17.50
2022-12-11T09:18:04.464Z,19.50
2022-12-11T09:19:04.402Z,19.39
2022-12-11T09:20:04.341Z,19.89
2022-12-11T09:21:04.297Z,19.50
2022-12-11T09:22:04.230Z,19.50
2022-12-11T09:23:04.181Z,18.70
2022-12-11T09:24:04.127Z,18.29
2022-12-11T09:25:04.067Z,19.39
2022-12-11T09:26:04.015Z,18.20
2022-12-11T09:27:03.959Z,19.89
2022-12-11T09:28:03.896Z,19.60
2022-12-11T09:29:03.844Z,18.89
2022-12-11T09:30:03.808Z,20.60
2022-12-11T09:31:03.794Z,19.00
2022-12-11T09:32:03.671Z,18.60
2022-12-11T09:33:03.610Z,20.70
2022-12-11T09:34:03.555Z,20.70
2022-12-11T09:35:03.492Z,20.50
2022-12-11T09:36:03.437Z,19.10
2022-12-11T09:37:03.381Z,19.20
2022-12-11T09:38:03.325Z,28.50
2022-12-11T09:39:03.259Z,21.20
2022-12-11T09:40:07.609Z,23.20
2022-12-11T09:41:03.131Z,26.60
2022-12-11T09:42:03.067Z,20.60
2022-12-11T09:43:03.008Z,19.79
2022-12-11T09:44:02.953Z,19.39
2022-12-11T09:45:02.900Z,19.70
2022-12-11T09:46:02.900Z,19.39
2022-12-11T09:47:02.772Z,18.79
2022-12-11T09:48:02.716Z,19.89
2022-12-11T09:49:02.655Z,19.10
2022-12-11T09:50:02.604Z,20.60
2022-12-11T09:51:02.552Z,19.20
2022-12-11T09:52:02.492Z,19.50
2022-12-11T09:53:02.435Z,20.89
2022-12-11T09:54:02.379Z,19.10
2022-12-11T09:55:02.319Z,19.39
2022-12-11T09:56:02.259Z,19.29
2022-12-11T09:57:02.204Z,19.39
2022-12-11T09:58:02.140Z,19.29
2022-12-11T09:59:02.082Z,19.20
2022-12-11T10:00:05.097Z,20.00
2022-12-11T10:01:01.965Z,20.00
2022-12-11T10:02:02.041Z,19.89
2022-12-11T10:03:01.900Z,19.39
2022-12-11T10:04:01.795Z,20.00
2022-12-11T10:05:01.731Z,20.10
2022-12-11T10:06:04.870Z,20.70
2022-12-11T10:07:01.625Z,19.60
2022-12-11T10:08:01.615Z,19.70
2022-12-11T10:09:01.517Z,20.79
2022-12-11T10:10:01.512Z,20.20
2022-12-11T10:11:01.391Z,19.70
2022-12-11T10:12:01.329Z,20.89
2022-12-11T10:13:01.268Z,19.50
2022-12-11T10:14:01.207Z,21.70
2022-12-11T10:15:01.225Z,19.39
2022-12-11T10:16:01.152Z,20.10
2022-12-11T10:17:01.028Z,20.29
2022-12-11T10:18:04.975Z,20.20
2022-12-11T10:19:00.903Z,20.89
2022-12-11T10:20:00.844Z,20.20
2022-12-11T10:21:00.775Z,21.60
2022-12-11T10:22:00.715Z,21.00
2022-12-11T10:23:00.771Z,21.00
2022-12-11T10:24:00.604Z,21.00
2022-12-11T10:25:11.059Z,22.39
2022-12-11T10:26:01.511Z,22.50
2022-12-11T10:27:00.448Z,21.10
2022-12-11T10:28:00.391Z,21.50
2022-12-11T10:29:00.332Z,20.39
2022-12-11T10:30:00.277Z,22.60
2022-12-11T10:31:00.281Z,21.70
2022-12-11T10:32:00.157Z,21.60
2022-12-11T10:33:00.095Z,20.50
2022-12-11T10:34:00.090Z,23.20
2022-12-11T10:34:59.981Z,21.60
2022-12-11T10:35:59.920Z,22.10
2022-12-11T10:37:00.701Z,21.60
2022-12-11T10:37:59.800Z,22.70
2022-12-11T10:38:59.743Z,22.29
2022-12-11T10:39:59.688Z,21.29
2022-12-11T10:40:59.631Z,21.10
2022-12-11T10:41:59.571Z,22.10
2022-12-11T10:42:59.505Z,21.79
2022-12-11T10:43:59.441Z,21.20
2022-12-11T10:44:59.373Z,20.20
2022-12-11T10:45:59.382Z,20.29
2022-12-11T10:46:59.246Z,21.20
2022-12-11T10:47:59.180Z,21.39
2022-12-11T10:48:59.121Z,21.29
2022-12-11T10:49:59.093Z,20.39
2022-12-11T10:50:58.982Z,20.60
2022-12-11T10:51:58.917Z,21.50
2022-12-11T10:52:58.856Z,21.70
2022-12-11T10:54:04.032Z,21.39
2022-12-11T10:54:59.734Z,22.00
2022-12-11T10:55:58.656Z,22.00
2022-12-11T10:56:58.592Z,21.39
2022-12-11T10:57:58.521Z,22.89
2022-12-11T10:58:58.457Z,21.20
2022-12-11T10:59:58.387Z,21.29
2022-12-11T11:00:58.318Z,23.00
2022-12-11T11:01:58.338Z,21.50
2022-12-11T11:02:58.233Z,21.89
2022-12-11T11:03:58.132Z,20.50
2022-12-11T11:04:58.070Z,20.70
2022-12-11T11:05:58.039Z,21.29
2022-12-11T11:06:57.944Z,21.60
2022-12-11T11:07:57.900Z,21.20
2022-12-11T11:08:57.812Z,21.60
2022-12-11T11:09:57.737Z,22.29
2022-12-11T11:10:57.679Z,23.39
2022-12-11T11:11:57.612Z,21.60
2022-12-11T11:12:57.548Z,21.60
2022-12-11T11:13:57.485Z,21.10
2022-12-11T11:14:57.423Z,22.10
2022-12-11T11:15:57.610Z,20.20
2022-12-11T11:16:57.292Z,21.00
2022-12-11T11:17:57.221Z,20.70
2022-12-11T11:18:57.152Z,21.29
2022-12-11T11:19:57.088Z,22.39
2022-12-11T11:20:57.022Z,21.50
2022-12-11T11:21:56.979Z,22.20
2022-12-11T11:22:56.898Z,22.10
2022-12-11T11:23:56.829Z,22.39
2022-12-11T11:24:56.761Z,21.70
2022-12-11T11:25:56.690Z,21.29
2022-12-11T11:27:12.831Z,22.00
2022-12-11T11:27:56.559Z,21.00
2022-12-11T11:28:56.506Z,21.00
2022-12-11T11:29:56.439Z,22.89
2022-12-11T11:30:56.419Z,22.50
2022-12-11T11:31:56.302Z,22.39
2022-12-11T11:32:56.239Z,22.20
2022-12-11T11:33:56.178Z,23.50
2022-12-11T11:34:56.112Z,21.50
2022-12-11T11:35:56.040Z,21.29
2022-12-11T11:36:55.974Z,23.29
2022-12-11T11:37:55.937Z,23.10
2022-12-11T11:38:55.842Z,20.79
2022-12-11T11:39:55.781Z,22.29
2022-12-11T11:41:00.756Z,21.60
2022-12-11T11:41:56.654Z,22.10
2022-12-11T11:42:55.574Z,22.89
2022-12-11T11:43:55.506Z,22.39
2022-12-11T11:44:55.444Z,22.70
2022-12-11T11:45:55.379Z,21.70
2022-12-11T11:46:55.361Z,21.70
2022-12-11T11:47:55.252Z,21.50
2022-12-11T11:48:55.191Z,22.29
2022-12-11T11:49:55.122Z,24.10
2022-12-11T11:50:55.057Z,22.00
2022-12-11T11:51:54.992Z,22.50
2022-12-11T11:52:54.927Z,22.00
2022-12-11T11:53:54.883Z,21.70
2022-12-11T11:54:54.792Z,24.00
2022-12-11T11:55:54.727Z,22.89
2022-12-11T11:56:54.658Z,21.79
2022-12-11T11:57:54.596Z,20.50
2022-12-11T11:58:54.531Z,21.29
2022-12-11T11:59:54.468Z,20.50
2022-12-11T12:00:54.395Z,21.29
2022-12-11T12:01:54.328Z,22.39
2022-12-11T12:02:54.349Z,20.70
2022-12-11T12:03:54.200Z,20.50
2022-12-11T12:04:54.132Z,22.29
2022-12-11T12:05:54.066Z,22.50
2022-12-11T12:06:54.001Z,22.20
2022-12-11T12:07:53.999Z,22.29
2022-12-11T12:08:53.874Z,22.79
2022-12-11T12:09:53.877Z,22.39
2022-12-11T12:10:53.749Z,22.10
2022-12-11T12:11:53.683Z,21.79
2022-12-11T12:12:53.615Z,21.50
2022-12-11T12:13:53.553Z,21.29
2022-12-11T12:14:53.491Z,20.79
2022-12-11T12:15:53.629Z,21.39
2022-12-11T12:16:53.989Z,22.39
2022-12-11T12:17:55.711Z,20.39
2022-12-11T12:18:53.205Z,21.79
2022-12-11T12:19:53.157Z,21.60
2022-12-11T12:20:53.071Z,21.00
2022-12-11T12:21:53.001Z,21.89
2022-12-11T12:22:52.929Z,22.70
2022-12-11T12:23:52.864Z,21.89
2022-12-11T12:24:52.794Z,21.29
2022-12-11T12:25:52.756Z,21.89
2022-12-11T12:26:52.658Z,20.89
2022-12-11T12:27:53.278Z,22.70
2022-12-11T12:28:52.529Z,22.70
2022-12-11T12:29:52.465Z,21.60
2022-12-11T12:30:52.394Z,20.50
2022-12-11T12:31:52.407Z,22.20
2022-12-11T12:32:52.266Z,22.50
2022-12-11T12:33:52.199Z,21.70
2022-12-11T12:34:52.138Z,23.00
2022-12-11T12:35:52.130Z,22.39
2022-12-11T12:36:52.011Z,20.79
2022-12-11T12:37:51.943Z,21.79
2022-12-11T12:38:51.879Z,21.70
2022-12-11T12:39:51.806Z,22.79
2022-12-11T12:40:51.740Z,22.60
2022-12-11T12:41:51.697Z,22.20
2022-12-11T12:42:51.613Z,22.20
2022-12-11T12:43:51.572Z,23.79
2022-12-11T12:44:51.477Z,21.79
2022-12-11T12:45:51.426Z,22.50
2022-12-11T12:46:51.347Z,21.79
2022-12-11T12:47:53.514Z,22.89
2022-12-11T12:48:51.225Z,21.79
2022-12-11T12:49:51.161Z,22.10
2022-12-11T12:50:51.091Z,22.50
2022-12-11T12:51:51.019Z,22.50